createdAt,value
2024-02-29T00:00:22.136Z,59.79
2024-02-29T00:03:10.343Z,59.90
2024-02-29T00:05:38.887Z,59.97
2024-02-29T00:08:07.426Z,60.00
2024-02-29T00:10:35.491Z,60.01
2024-02-29T00:13:03.525Z,60.00
2024-02-29T00:15:31.723Z,60.11
2024-02-29T00:17:59.897Z,60.07
2024-02-29T00:20:28.092Z,59.86
2024-02-29T00:22:56.150Z,59.92
2024-02-29T00:25:24.343Z,59.88
2024-02-29T00:27:52.510Z,59.90
2024-02-29T00:30:21.286Z,59.89
2024-02-29T00:32:49.420Z,59.99
2024-02-29T00:35:17.546Z,59.89
2024-02-29T00:37:46.102Z,59.95
2024-02-29T00:40:14.463Z,60.11
2024-02-29T00:42:42.522Z,60.13
2024-02-29T00:45:10.608Z,60.13
2024-02-29T00:47:39.290Z,60.30
2024-02-29T00:50:08.431Z,60.41
2024-02-29T00:52:36.575Z,60.46
2024-02-29T00:55:05.521Z,60.52
2024-02-29T00:57:33.869Z,60.62
2024-02-29T01:00:02.212Z,60.85
2024-02-29T01:02:55.417Z,60.82
2024-02-29T01:05:23.446Z,61.05
2024-02-29T01:07:51.615Z,61.23
2024-02-29T01:10:19.883Z,61.34
2024-02-29T01:12:48.298Z,61.40
2024-02-29T01:15:16.710Z,61.42
2024-02-29T01:17:45.148Z,61.52
2024-02-29T01:20:13.387Z,61.60
2024-02-29T01:22:41.620Z,61.72
2024-02-29T01:25:11.386Z,61.81
2024-02-29T01:27:39.782Z,61.78
2024-02-29T01:30:08.381Z,61.87
2024-02-29T01:32:37.870Z,61.91
2024-02-29T01:35:06.934Z,61.99
2024-02-29T01:37:35.025Z,62.05
2024-02-29T01:40:03.451Z,62.05
2024-02-29T01:42:31.592Z,62.09
2024-02-29T01:44:59.635Z,62.16
2024-02-29T01:47:28.126Z,62.18
2024-02-29T01:50:00.194Z,62.16
2024-02-29T01:52:30.734Z,62.22
2024-02-29T01:55:04.165Z,62.29
2024-02-29T01:57:35.409Z,62.42
2024-02-29T02:00:05.810Z,62.47
2024-02-29T02:02:35.506Z,62.51
2024-02-29T02:05:03.864Z,62.59
2024-02-29T02:07:33.444Z,62.67
2024-02-29T02:10:01.774Z,62.65
2024-02-29T02:12:29.951Z,62.84
2024-02-29T02:15:03.670Z,62.95
2024-02-29T02:17:33.584Z,63.05
2024-02-29T02:20:02.673Z,63.19
2024-02-29T02:22:31.478Z,63.25
2024-02-29T02:24:59.525Z,63.42
2024-02-29T02:27:27.739Z,63.57
2024-02-29T02:29:57.212Z,63.82
2024-02-29T02:32:25.311Z,64.07
2024-02-29T02:34:53.485Z,64.30
2024-02-29T02:37:21.636Z,64.41
2024-02-29T02:39:49.744Z,64.65
2024-02-29T02:42:18.002Z,64.69
2024-02-29T02:44:45.997Z,64.75
2024-02-29T02:47:14.015Z,64.80
2024-02-29T02:49:43.059Z,64.95
2024-02-29T02:52:11.234Z,65.11
2024-02-29T02:54:40.713Z,65.18
2024-02-29T02:57:09.478Z,65.22
2024-02-29T02:59:37.550Z,65.41
2024-02-29T03:02:05.598Z,65.39
2024-02-29T03:04:33.900Z,65.35
2024-02-29T03:07:01.983Z,65.40
2024-02-29T03:09:31.908Z,65.56
2024-02-29T03:12:00.213Z,65.65
2024-02-29T03:14:28.349Z,65.69
2024-02-29T03:16:56.926Z,65.69
2024-02-29T03:19:25.042Z,65.67
2024-02-29T03:21:53.258Z,65.86
2024-02-29T03:24:21.407Z,65.69
2024-02-29T03:26:49.560Z,65.48
2024-02-29T03:29:17.706Z,65.57
2024-02-29T03:31:46.720Z,65.61
2024-02-29T03:34:16.431Z,65.54
2024-02-29T03:36:44.729Z,65.56
2024-02-29T03:39:12.838Z,65.46
2024-02-29T03:41:41.055Z,65.51
2024-02-29T03:44:09.133Z,65.57
2024-02-29T03:46:37.199Z,65.62
2024-02-29T03:49:05.360Z,65.83
2024-02-29T03:51:34.331Z,65.91
2024-02-29T03:54:03.543Z,65.86
2024-02-29T03:56:32.448Z,65.95
2024-02-29T03:59:00.721Z,65.88
2024-02-29T04:01:28.802Z,65.93
2024-02-29T04:03:57.065Z,66.07
2024-02-29T04:06:25.208Z,66.07
2024-02-29T04:08:53.424Z,66.17
2024-02-29T04:11:21.542Z,66.21
2024-02-29T04:13:49.627Z,66.21
2024-02-29T04:16:18.451Z,66.35
2024-02-29T04:18:46.710Z,66.43
2024-02-29T04:21:14.757Z,66.52
2024-02-29T04:23:42.814Z,66.64
2024-02-29T04:26:10.830Z,66.70
2024-02-29T04:28:39.072Z,66.79
2024-02-29T04:31:07.235Z,66.87
2024-02-29T04:33:35.340Z,66.91
2024-02-29T04:36:03.651Z,67.03
2024-02-29T04:38:31.777Z,67.07
2024-02-29T04:40:59.875Z,67.19
2024-02-29T04:43:28.360Z,67.19
2024-02-29T04:45:56.758Z,67.36
2024-02-29T04:48:27.347Z,67.32
2024-02-29T04:50:55.712Z,67.46
2024-02-29T04:53:23.826Z,67.64
2024-02-29T04:55:51.984Z,67.70
2024-02-29T04:58:20.286Z,67.74
2024-02-29T05:00:49.748Z,67.96
2024-02-29T05:03:18.231Z,68.00
2024-02-29T05:05:46.506Z,68.09
2024-02-29T05:08:14.534Z,68.17
2024-02-29T05:10:42.882Z,68.33
2024-02-29T05:13:11.435Z,68.48
2024-02-29T05:15:40.439Z,68.54
2024-02-29T05:18:08.834Z,68.63
2024-02-29T05:20:37.153Z,68.77
2024-02-29T05:23:05.457Z,68.81
2024-02-29T05:25:33.649Z,69.02
2024-02-29T05:28:03.018Z,69.15
2024-02-29T05:30:31.056Z,69.20
2024-02-29T05:32:59.227Z,69.26
2024-02-29T05:35:27.476Z,69.44
2024-02-29T05:37:58.481Z,69.49
2024-02-29T05:40:30.791Z,69.57
2024-02-29T05:42:59.000Z,69.69
2024-02-29T05:45:27.065Z,69.89
2024-02-29T05:47:55.266Z,70.04
2024-02-29T05:50:23.316Z,70.26
2024-02-29T05:52:51.426Z,70.52
2024-02-29T05:55:19.756Z,70.77
2024-02-29T05:57:47.948Z,71.04
2024-02-29T06:00:18.697Z,71.17
2024-02-29T06:02:48.551Z,71.18
2024-02-29T06:05:19.982Z,71.22
2024-02-29T06:07:48.524Z,70.87
2024-02-29T06:10:20.763Z,70.84
2024-02-29T06:12:55.947Z,70.92
2024-02-29T06:15:24.192Z,70.73
2024-02-29T06:17:52.258Z,69.66
2024-02-29T06:20:20.385Z,69.07
2024-02-29T06:23:06.280Z,68.87
2024-02-29T06:25:35.796Z,68.63
2024-02-29T06:28:04.083Z,68.45
2024-02-29T06:30:33.892Z,68.49
2024-02-29T06:33:03.336Z,68.50
2024-02-29T06:35:32.477Z,68.52
2024-02-29T06:38:00.511Z,68.49
2024-02-29T06:40:29.248Z,68.37
2024-02-29T06:42:57.480Z,68.28
2024-02-29T06:45:25.766Z,68.00
2024-02-29T06:47:53.944Z,67.87
2024-02-29T06:50:22.098Z,67.72
2024-02-29T06:52:52.344Z,67.60
2024-02-29T06:55:21.912Z,67.48
2024-02-29T06:57:52.422Z,67.24
2024-02-29T07:00:20.647Z,67.12
2024-02-29T07:02:48.921Z,67.11
2024-02-29T07:05:17.988Z,67.16
2024-02-29T07:07:46.709Z,67.06
2024-02-29T07:10:15.063Z,66.84
2024-02-29T07:12:43.902Z,66.62
2024-02-29T07:15:13.809Z,66.50
2024-02-29T07:17:42.979Z,66.42
2024-02-29T07:20:17.908Z,66.38
2024-02-29T07:22:52.546Z,66.24
2024-02-29T07:25:20.701Z,66.05
2024-02-29T07:27:50.468Z,65.83
2024-02-29T07:30:19.851Z,65.67
2024-02-29T07:32:48.336Z,65.41
2024-02-29T07:35:19.194Z,65.28
2024-02-29T07:37:47.792Z,65.13
2024-02-29T07:40:16.242Z,64.96
2024-02-29T07:42:44.590Z,64.69
2024-02-29T07:45:12.768Z,64.50
2024-02-29T07:47:42.137Z,64.42
2024-02-29T07:50:11.133Z,64.49
2024-02-29T07:52:53.109Z,64.27
2024-02-29T07:55:21.381Z,63.91
2024-02-29T07:57:49.611Z,63.48
2024-02-29T08:00:19.145Z,63.33
2024-02-29T08:02:49.986Z,63.51
2024-02-29T08:05:18.329Z,63.09
2024-02-29T08:07:50.899Z,62.69
2024-02-29T08:10:19.287Z,62.31
2024-02-29T08:12:47.814Z,62.53
2024-02-29T08:15:16.393Z,62.64
2024-02-29T08:17:44.670Z,62.57
2024-02-29T08:20:12.885Z,62.38
2024-02-29T08:22:41.183Z,62.48
2024-02-29T08:25:26.225Z,62.54
2024-02-29T08:27:55.224Z,62.58
2024-02-29T08:30:24.467Z,62.77
2024-02-29T08:32:52.589Z,62.71
2024-02-29T08:35:20.773Z,62.74
2024-02-29T08:37:49.156Z,62.85
2024-02-29T08:40:20.985Z,63.20
2024-02-29T08:42:49.157Z,63.20
2024-02-29T08:45:19.802Z,63.08
2024-02-29T08:47:48.864Z,63.20
2024-02-29T08:50:17.178Z,63.23
2024-02-29T08:52:45.492Z,63.26
2024-02-29T08:55:13.733Z,63.41
2024-02-29T08:57:41.816Z,63.34
2024-02-29T09:00:10.920Z,63.34
2024-02-29T09:02:39.267Z,63.05
2024-02-29T09:05:07.845Z,63.10
2024-02-29T09:07:36.099Z,63.09
2024-02-29T09:10:06.207Z,62.78
2024-02-29T09:12:35.849Z,62.67
2024-02-29T09:15:04.450Z,62.52
2024-02-29T09:17:32.687Z,62.54
2024-02-29T09:20:01.029Z,62.44
2024-02-29T09:22:29.277Z,62.29
2024-02-29T09:24:57.561Z,62.45
2024-02-29T09:27:25.618Z,62.45
2024-02-29T09:29:55.461Z,62.53
2024-02-29T09:32:25.092Z,62.45
2024-02-29T09:34:53.565Z,62.40
2024-02-29T09:37:21.913Z,62.37
2024-02-29T09:39:50.486Z,62.14
2024-02-29T09:42:18.788Z,61.95
2024-02-29T09:44:48.554Z,61.90
2024-02-29T09:47:20.696Z,62.13
2024-02-29T09:49:51.410Z,62.10
2024-02-29T09:52:27.533Z,62.12
2024-02-29T09:54:58.582Z,62.20
2024-02-29T10:02:17.277Z,62.04
2024-02-29T10:04:47.820Z,62.09
2024-02-29T10:07:18.711Z,62.05
2024-02-29T10:09:47.245Z,61.86
2024-02-29T10:12:18.558Z,61.76
2024-02-29T10:15:00.273Z,61.78
2024-02-29T10:17:33.582Z,61.71
2024-02-29T10:20:02.037Z,61.93
2024-02-29T10:22:30.251Z,62.00
2024-02-29T10:24:58.412Z,61.86
2024-02-29T10:27:27.168Z,61.98
2024-02-29T10:30:02.976Z,62.21
2024-02-29T10:32:33.489Z,62.24
2024-02-29T10:35:22.157Z,62.28
2024-02-29T10:37:55.017Z,62.25
2024-02-29T10:40:27.718Z,62.12
2024-02-29T10:42:59.492Z,62.07
2024-02-29T10:45:29.417Z,61.92
2024-02-29T10:48:18.913Z,61.85
2024-02-29T10:51:01.602Z,62.00
2024-02-29T10:54:03.620Z,61.70
2024-02-29T10:56:34.872Z,61.58
2024-02-29T10:59:05.452Z,61.54
2024-02-29T11:01:34.749Z,61.35
2024-02-29T11:04:04.420Z,61.22
2024-02-29T11:06:47.761Z,61.02
2024-02-29T11:09:18.485Z,60.88
2024-02-29T11:11:48.629Z,60.77
2024-02-29T11:14:19.039Z,60.53
2024-02-29T11:16:47.459Z,60.46
2024-02-29T11:19:19.450Z,60.15
2024-02-29T11:21:48.036Z,59.93
2024-02-29T11:24:23.587Z,59.66
2024-02-29T11:26:57.663Z,59.72
2024-02-29T11:29:26.447Z,59.37
2024-02-29T11:31:56.459Z,59.55
2024-02-29T11:34:25.117Z,59.58
2024-02-29T11:36:55.004Z,59.25
2024-02-29T11:39:24.563Z,59.08
2024-02-29T11:42:08.031Z,58.63
2024-02-29T11:44:36.299Z,58.28
2024-02-29T11:47:04.679Z,58.12
2024-02-29T11:49:46.199Z,57.80
2024-02-29T11:52:53.784Z,57.62
2024-02-29T11:55:35.312Z,57.55
2024-02-29T11:58:03.718Z,57.76
2024-02-29T12:00:32.145Z,57.51
2024-02-29T12:03:00.743Z,57.51
2024-02-29T12:05:28.938Z,57.48
2024-02-29T12:07:58.293Z,57.17
2024-02-29T12:10:29.945Z,56.96
2024-02-29T12:13:08.211Z,56.83
2024-02-29T12:15:38.718Z,56.39
2024-02-29T12:18:10.704Z,55.83
2024-02-29T12:20:39.043Z,55.70
2024-02-29T12:23:08.591Z,55.85
2024-02-29T12:25:36.726Z,55.94
2024-02-29T12:28:06.837Z,56.07
2024-02-29T12:30:35.830Z,55.48
2024-02-29T12:33:04.413Z,55.47
2024-02-29T12:35:33.494Z,55.33
2024-02-29T12:38:04.728Z,55.30
2024-02-29T12:40:34.334Z,55.19
2024-02-29T12:43:02.829Z,55.02
2024-02-29T12:45:31.171Z,54.55
2024-02-29T12:48:00.492Z,54.04
2024-02-29T12:50:37.884Z,53.81
2024-02-29T12:53:06.048Z,53.51
2024-02-29T12:55:34.472Z,53.55
2024-02-29T12:58:04.995Z,53.33
2024-02-29T13:00:33.939Z,53.22
2024-02-29T13:03:08.998Z,53.07
2024-02-29T13:05:46.903Z,52.95
2024-02-29T13:08:49.330Z,52.87
2024-02-29T13:11:18.155Z,52.82
2024-02-29T13:13:48.523Z,52.41
2024-02-29T13:16:16.646Z,52.16
2024-02-29T13:18:44.928Z,52.03
2024-02-29T13:21:18.824Z,51.96
2024-02-29T13:23:47.079Z,51.97
2024-02-29T13:26:17.344Z,52.03
2024-02-29T13:28:46.841Z,51.74
2024-02-29T13:31:15.396Z,51.69
2024-02-29T13:33:43.576Z,51.60
2024-02-29T13:36:11.953Z,51.59
2024-02-29T13:38:40.448Z,50.76
2024-02-29T13:41:09.053Z,50.94
2024-02-29T13:43:37.892Z,51.02
2024-02-29T13:46:06.645Z,50.94
2024-02-29T13:48:37.098Z,50.98
2024-02-29T13:51:06.806Z,50.83
2024-02-29T13:53:38.455Z,50.60
2024-02-29T13:56:37.403Z,50.47
2024-02-29T13:59:08.678Z,50.47
2024-02-29T14:01:37.027Z,50.22
2024-02-29T14:04:05.528Z,50.11
2024-02-29T14:06:34.262Z,50.15
2024-02-29T14:09:02.819Z,49.96
2024-02-29T14:11:31.059Z,50.25
2024-02-29T14:13:59.221Z,50.34
2024-02-29T14:16:33.727Z,50.39
2024-02-29T14:19:02.609Z,50.55
2024-02-29T14:21:30.724Z,50.34
2024-02-29T14:23:59.255Z,50.35
2024-02-29T14:26:30.517Z,50.44
2024-02-29T14:29:00.740Z,50.38
2024-02-29T14:31:34.621Z,50.45
2024-02-29T14:34:04.151Z,50.38
2024-02-29T14:36:36.262Z,50.43
2024-02-29T14:39:15.324Z,50.65
2024-02-29T14:41:49.054Z,50.62
2024-02-29T14:44:17.416Z,50.52
2024-02-29T14:46:46.571Z,50.64
2024-02-29T14:49:18.024Z,50.29
2024-02-29T14:51:46.575Z,50.39
2024-02-29T14:54:15.891Z,50.50
2024-02-29T14:56:44.718Z,50.52
2024-02-29T15:00:07.327Z,50.63
2024-02-29T15:02:35.506Z,50.53
2024-02-29T15:05:07.999Z,50.54
2024-02-29T15:07:37.729Z,50.59
2024-02-29T15:10:07.734Z,50.63
2024-02-29T15:12:35.817Z,50.65
2024-02-29T15:15:05.378Z,50.74
2024-02-29T15:17:34.456Z,50.75
2024-02-29T15:20:06.024Z,50.85
2024-02-29T15:22:34.216Z,50.88
2024-02-29T15:25:05.293Z,50.88
2024-02-29T15:27:39.307Z,50.89
2024-02-29T15:30:08.434Z,50.77
2024-02-29T15:32:36.856Z,50.81
2024-02-29T15:35:08.892Z,50.81
2024-02-29T15:37:37.267Z,50.78
2024-02-29T15:40:06.148Z,50.76
2024-02-29T15:42:35.885Z,50.65
2024-02-29T15:46:01.765Z,50.74
2024-02-29T15:48:30.736Z,50.91
2024-02-29T15:50:59.203Z,51.01
2024-02-29T15:53:27.233Z,51.02
2024-02-29T15:55:55.465Z,51.15
2024-02-29T15:58:23.738Z,51.07
2024-02-29T16:00:51.891Z,51.27
2024-02-29T16:03:20.053Z,51.43
2024-02-29T16:05:50.588Z,51.52
2024-02-29T16:08:20.628Z,51.53
2024-02-29T16:10:53.069Z,51.71
2024-02-29T16:13:22.862Z,51.86
2024-02-29T16:15:54.508Z,51.98
2024-02-29T16:18:23.447Z,52.13
2024-02-29T16:20:54.550Z,52.28
2024-02-29T16:23:25.028Z,52.36
2024-02-29T16:25:53.116Z,52.46
2024-02-29T16:28:27.218Z,52.55
2024-02-29T16:31:01.036Z,52.70
2024-02-29T16:33:29.292Z,52.65
2024-02-29T16:36:01.605Z,52.66
2024-02-29T16:38:30.052Z,52.78
2024-02-29T16:41:03.685Z,52.80
2024-02-29T16:43:34.997Z,52.95
2024-02-29T16:46:09.951Z,52.83
2024-02-29T16:48:38.537Z,53.07
2024-02-29T16:51:08.907Z,53.16
2024-02-29T16:53:37.765Z,53.23
2024-02-29T16:56:05.992Z,53.13
2024-02-29T16:58:34.349Z,53.30
2024-02-29T17:01:02.639Z,53.34
2024-02-29T17:03:41.732Z,53.40
2024-02-29T17:06:13.183Z,53.44
2024-02-29T17:08:41.222Z,53.49
2024-02-29T17:11:12.705Z,53.55
2024-02-29T17:13:41.039Z,53.62
2024-02-29T17:16:09.194Z,53.69
2024-02-29T17:18:43.155Z,53.82
2024-02-29T17:21:15.865Z,53.89
2024-02-29T17:23:49.572Z,53.95
2024-02-29T17:26:25.629Z,54.01
2024-02-29T17:28:57.537Z,54.17
2024-02-29T17:31:31.474Z,54.31
2024-02-29T17:34:05.818Z,54.38
2024-02-29T17:36:34.468Z,54.48
2024-02-29T17:39:04.390Z,54.66
2024-02-29T17:41:32.963Z,54.69
2024-02-29T17:44:05.562Z,54.79
2024-02-29T17:46:33.597Z,54.92
2024-02-29T17:49:04.236Z,55.04
2024-02-29T17:51:32.318Z,55.23
2024-02-29T17:54:05.817Z,55.40
2024-02-29T17:56:40.341Z,55.40
2024-02-29T17:59:09.699Z,55.45
2024-02-29T18:01:42.008Z,55.41
2024-02-29T18:04:13.875Z,55.32
2024-02-29T18:06:50.674Z,55.40
2024-02-29T18:09:23.476Z,55.62
2024-02-29T18:11:53.809Z,55.64
2024-02-29T18:14:32.828Z,55.82
2024-02-29T18:17:01.042Z,55.92
2024-02-29T18:19:29.574Z,56.03
2024-02-29T18:22:08.396Z,56.19
2024-02-29T18:24:43.551Z,56.16
2024-02-29T18:27:15.515Z,56.28
2024-02-29T18:29:49.869Z,56.36
2024-02-29T18:32:24.490Z,56.46
2024-02-29T18:34:53.428Z,56.73
2024-02-29T18:37:33.089Z,56.84
2024-02-29T18:40:03.393Z,56.84
2024-02-29T18:42:31.752Z,56.93
2024-02-29T18:45:01.527Z,56.96
2024-02-29T18:47:29.862Z,56.99
2024-02-29T18:50:00.799Z,56.98
2024-02-29T18:52:32.885Z,56.99
2024-02-29T18:55:08.446Z,56.99
2024-02-29T18:57:47.068Z,57.04
2024-02-29T19:00:16.570Z,57.05
2024-02-29T19:02:45.132Z,57.15
2024-02-29T19:05:15.513Z,57.29
2024-02-29T19:07:48.350Z,57.30
2024-02-29T19:10:26.979Z,57.38
2024-02-29T19:12:57.009Z,57.49
2024-02-29T19:15:27.114Z,57.50
2024-02-29T19:17:55.209Z,57.54
2024-02-29T19:20:26.690Z,57.66
2024-02-29T19:22:57.553Z,57.64
2024-02-29T19:25:25.787Z,57.73
2024-02-29T19:27:59.039Z,57.77
2024-02-29T19:30:28.318Z,57.84
2024-02-29T19:32:56.377Z,57.78
2024-02-29T19:35:25.216Z,57.74
2024-02-29T19:37:54.390Z,57.77
2024-02-29T19:40:22.615Z,57.86
2024-02-29T19:42:51.042Z,57.94
2024-02-29T19:45:19.536Z,57.97
2024-02-29T19:47:51.165Z,58.10
2024-02-29T19:50:21.590Z,58.46
2024-02-29T19:52:49.645Z,58.54
2024-02-29T19:55:17.806Z,58.94
2024-02-29T19:57:46.088Z,59.04
2024-02-29T20:00:18.885Z,59.10
2024-02-29T20:02:49.380Z,58.92
2024-02-29T20:05:22.241Z,58.81
2024-02-29T20:07:52.308Z,58.86
2024-02-29T20:10:23.321Z,58.78
2024-02-29T20:12:54.085Z,58.74
2024-02-29T20:15:22.761Z,58.48
2024-02-29T20:17:54.408Z,58.40
2024-02-29T20:20:22.655Z,58.50
2024-02-29T20:22:51.152Z,58.35
2024-02-29T20:25:24.336Z,58.26
2024-02-29T20:27:55.359Z,58.21
2024-02-29T20:30:24.484Z,58.20
2024-02-29T20:32:52.704Z,58.26
2024-02-29T20:35:20.906Z,58.32
2024-02-29T20:37:51.411Z,58.43
2024-02-29T20:40:20.722Z,58.45
2024-02-29T20:42:54.328Z,58.41
2024-02-29T20:45:23.733Z,58.39
2024-02-29T20:47:52.091Z,58.37
2024-02-29T20:50:28.384Z,58.37
2024-02-29T20:52:56.581Z,58.46
2024-02-29T20:55:28.249Z,58.56
2024-02-29T20:57:56.299Z,58.61
2024-02-29T21:00:24.280Z,58.95
2024-02-29T21:02:55.445Z,59.07
2024-02-29T21:05:27.425Z,59.69
2024-02-29T21:08:01.446Z,60.38
2024-02-29T21:10:36.088Z,60.46
2024-02-29T21:13:07.122Z,60.14
2024-02-29T21:15:36.476Z,60.29
2024-02-29T21:18:07.919Z,60.40
2024-02-29T21:20:43.784Z,60.36
2024-02-29T21:23:12.107Z,60.50
2024-02-29T21:25:43.248Z,60.62
2024-02-29T21:28:13.011Z,60.65
2024-02-29T21:30:46.760Z,60.77
2024-02-29T21:33:38.008Z,60.73
2024-02-29T21:36:07.503Z,60.80
2024-02-29T21:38:38.971Z,60.96
2024-02-29T21:41:08.016Z,61.06
2024-02-29T21:43:36.315Z,61.30
2024-02-29T21:46:04.644Z,61.43
2024-02-29T21:48:32.807Z,61.57
2024-02-29T21:51:00.796Z,61.84
2024-02-29T21:53:29.291Z,61.82
2024-02-29T21:55:57.306Z,62.05
2024-02-29T21:58:29.852Z,62.04
2024-02-29T22:01:00.769Z,62.09
2024-02-29T22:03:32.837Z,62.28
2024-02-29T22:06:08.645Z,62.48
2024-02-29T22:08:40.638Z,63.13
2024-02-29T22:11:14.800Z,63.45
2024-02-29T22:13:43.217Z,63.51
2024-02-29T22:16:16.747Z,63.51
2024-02-29T22:18:47.692Z,63.46
2024-02-29T22:21:25.550Z,63.46
2024-02-29T22:23:55.992Z,63.56
2024-02-29T22:26:27.029Z,63.62
2024-02-29T22:28:55.003Z,63.74
2024-02-29T22:31:28.440Z,63.79
2024-02-29T22:33:58.270Z,63.84
2024-02-29T22:36:28.030Z,63.90
2024-02-29T22:38:56.556Z,64.07
2024-02-29T22:41:24.668Z,64.22
2024-02-29T22:43:59.611Z,64.42
2024-02-29T22:46:30.077Z,64.44
2024-02-29T22:49:00.075Z,64.71
2024-02-29T22:51:28.260Z,64.89
2024-02-29T22:53:56.392Z,65.02
2024-02-29T22:56:31.343Z,65.24
2024-02-29T22:59:06.058Z,65.38
2024-02-29T23:01:40.355Z,65.57
2024-02-29T23:04:09.513Z,65.72
2024-02-29T23:06:39.029Z,65.77
2024-02-29T23:09:11.339Z,66.04
2024-02-29T23:11:40.020Z,66.11
2024-02-29T23:14:13.140Z,66.29
2024-02-29T23:16:44.937Z,66.25
2024-02-29T23:19:15.773Z,66.22
2024-02-29T23:21:44.026Z,66.28
2024-02-29T23:24:12.173Z,66.38
2024-02-29T23:26:40.313Z,66.36
2024-02-29T23:29:08.527Z,66.34
2024-02-29T23:31:36.608Z,66.52
2024-02-29T23:34:05.004Z,66.59
2024-02-29T23:36:33.141Z,66.69
2024-02-29T23:39:01.320Z,66.62
2024-02-29T23:41:29.439Z,66.49
2024-02-29T23:43:57.642Z,66.38
2024-02-29T23:46:25.919Z,66.64
2024-02-29T23:48:54.232Z,66.69
2024-02-29T23:51:22.487Z,66.79
2024-02-29T23:53:50.987Z,66.80
2024-02-29T23:56:19.227Z,66.84
2024-02-29T23:58:47.402Z,66.93
